Etusivu
METAR-TAF:

METAR-TAF

Lentoasemat :

Gibraltar, Gibraltar

Gibraltarin lentoasema

Leveyspiiri: 36-09N, Pituuspiiri: 005-21W, korkeus merenpinnasta: 5 m

Tämänhetkinen sää

Tämä raportti tehtiin 46 minuuttia sitten, kello 14.50 UTC
Tuuli 10 kn idästä/kaakosta
Lämpötila 28°C
Kosteus 42%
Ilmanpaine 1011 hPa
Näkyvyys 10 km tai enemmän
Muutamia pilviä 6000 ft:n korkeudessa
Hajanaisia pilviä 14000 ft:n korkeudessa

METAR: LXGB 251450Z 11010KT 9999 FEW060 SCT140 28/14 Q1011 NOSIG

Aika: 17:36 (15:36 UTC)


TAF: puuttuu

Säähavainnot ja -ennusteet yli 4000 lentoasemalta (METAR- ja TAF-raportit).

Käytössä olevat sääasemat on merkitty karttaan keltaisilla ja punaisilla pisteillä.

Aseta hiiri pisteen päälle nähdäksesi sääaseman nimen.

Klikkaa sitten nähdäksesi säähavainnot ja -ennusteet.

Kartan vaihtaminen: klikkaa mustalla rastilla varustettuja vihreitä pisteitä, niin voit zoomata sisään; viivalla varustettua vihreää pistettä, niin voit zoomata ulos tai vihreitä nuolia, niin pääset viereisille kartoille.


METAR-TAF: